Time;durP1;ratioP1;P1;durP2;ratioP2;P2;SDS_P1;SDS_P2;PMS_P1;PMS_P2;Temp;Humidity;BMP_temperature;BMP_pressure;BME280_temperature;BME280_humidity;BME280_pressure;Samples;Min_cycle;Max_cycle;Signal;HPM_P1;HPM_P2
2022/05/16 00:02:29;;;;;;;3.53;2.65;;;24.60;66.70;;;;;;10907516;32;20028;-76
2022/05/16 00:08:31;;;;;;;2.87;1.95;;;24.50;66.90;;;;;;10903804;32;20019;-76
2022/05/16 00:14:34;;;;;;;10.75;2.87;;;24.40;66.90;;;;;;10907096;32;20020;-76
2022/05/16 00:20:36;;;;;;;4.32;2.78;;;24.30;67.20;;;;;;10906769;32;20019;-75
2022/05/16 00:26:39;;;;;;;3.37;2.20;;;24.30;67.30;;;;;;10906638;32;20042;-76
2022/05/16 00:32:42;;;;;;;4.15;2.85;;;24.20;67.40;;;;;;10906317;32;20388;-76
2022/05/16 00:38:44;;;;;;;3.47;2.47;;;24.10;67.60;;;;;;10906205;32;20049;-75
2022/05/16 00:44:46;;;;;;;4.03;2.47;;;24.00;67.70;;;;;;10906021;32;20422;-75
2022/05/16 00:50:50;;;;;;;3.37;2.50;;;24.00;68.00;;;;;;10888412;32;20054;-75
2022/05/16 00:56:59;;;;;;;4.45;2.90;;;24.10;68.00;;;;;;10905461;32;20028;-75
2022/05/16 01:09:31;;;;;;;4.65;3.05;;;24.20;68.20;;;;;;10905068;32;20049;-75
2022/05/16 01:15:45;;;;;;;6.00;2.72;;;24.20;68.20;;;;;;10987924;27;20060;-75
2022/05/16 01:21:48;;;;;;;7.18;3.45;;;24.10;68.30;;;;;;11056445;32;20060;-75
2022/05/16 01:27:55;;;;;;;5.25;3.05;;;24.00;68.50;;;;;;11040056;32;20014;-75
2022/05/16 01:33:58;;;;;;;7.28;3.40;;;24.00;68.60;;;;;;11056363;32;20060;-75
2022/05/16 01:40:01;;;;;;;4.10;2.53;;;24.00;68.50;;;;;;11055800;32;20095;-75
2022/05/16 01:46:04;;;;;;;6.10;4.10;;;24.00;68.60;;;;;;11056029;32;20052;-75
2022/05/16 01:52:06;;;;;;;3.75;2.50;;;23.80;69.80;;;;;;11042208;32;20018;-75
2022/05/16 01:58:09;;;;;;;7.72;3.78;;;23.70;69.90;;;;;;11055959;32;20425;-76
2022/05/16 02:04:11;;;;;;;6.82;2.90;;;23.60;70.20;;;;;;11055917;32;20076;-76
2022/05/16 02:10:17;;;;;;;6.12;3.03;;;23.50;70.30;;;;;;11055680;32;20018;-76
2022/05/16 02:16:20;;;;;;;6.72;2.97;;;23.50;70.60;;;;;;11055552;32;20044;-76
2022/05/16 02:28:48;;;;;;;5.82;3.22;;;23.40;70.70;;;;;;11055454;32;20018;-75
2022/05/16 02:35:03;;;;;;;4.55;2.75;;;23.30;70.70;;;;;;11051559;32;20021;-75
2022/05/16 02:41:05;;;;;;;5.15;2.95;;;23.30;71.00;;;;;;11041545;32;20334;-74
2022/05/16 02:47:10;;;;;;;5.70;3.75;;;23.30;71.20;;;;;;11041394;32;20215;-75
2022/05/16 02:53:12;;;;;;;6.28;4.00;;;23.30;71.40;;;;;;11058501;32;20315;-75
2022/05/16 02:59:14;;;;;;;5.12;3.50;;;23.20;71.30;;;;;;11061512;32;20030;-75
2022/05/16 03:05:16;;;;;;;5.93;3.45;;;23.20;71.40;;;;;;11061318;32;20022;-75
2022/05/16 03:11:18;;;;;;;4.87;3.25;;;23.10;71.50;;;;;;11061420;32;20040;-75
2022/05/16 03:17:20;;;;;;;6.75;5.05;;;23.10;72.00;;;;;;11060986;32;20036;-75
2022/05/16 03:23:22;;;;;;;5.25;3.65;;;23.10;72.20;;;;;;11060600;32;20030;-74
2022/05/16 03:29:25;;;;;;;6.32;3.50;;;23.10;72.40;;;;;;11060428;32;20044;-74
2022/05/16 03:35:27;;;;;;;6.37;3.95;;;23.10;72.60;;;;;;11056025;32;20060;-75
2022/05/16 03:41:29;;;;;;;7.78;4.25;;;23.00;72.60;;;;;;11060163;32;20041;-75
2022/05/16 03:47:32;;;;;;;6.75;4.43;;;22.90;72.40;;;;;;11059968;32;20050;-75
2022/05/16 03:53:36;;;;;;;6.53;3.95;;;23.00;72.10;;;;;;11058511;32;20026;-76
2022/05/16 03:59:38;;;;;;;7.55;4.62;;;22.80;72.20;;;;;;11059217;32;20310;-75
2022/05/16 04:05:40;;;;;;;5.18;3.53;;;22.80;72.40;;;;;;11059014;32;20393;-75
2022/05/16 04:11:42;;;;;;;6.80;4.78;;;22.80;72.90;;;;;;11056720;32;20526;-75
2022/05/16 04:17:44;;;;;;;5.87;4.35;;;22.80;73.00;;;;;;11058629;32;20330;-75
2022/05/16 04:23:46;;;;;;;7.93;4.18;;;22.80;72.80;;;;;;11044906;32;20044;-75
2022/05/16 04:29:48;;;;;;;7.05;5.55;;;22.80;72.60;;;;;;11054481;32;20018;-75
2022/05/16 04:35:56;;;;;;;7.30;5.65;;;22.80;72.70;;;;;;11057968;32;20029;-75
2022/05/16 04:48:19;;;;;;;6.93;4.78;;;22.80;72.70;;;;;;11057771;32;20424;-74
2022/05/16 04:54:42;;;;;;;7.70;4.43;;;22.80;72.80;;;;;;11057486;32;20374;-73
2022/05/16 05:00:44;;;;;;;6.28;4.07;;;22.90;72.60;;;;;;11053359;32;20029;-75
2022/05/16 05:07:01;;;;;;;7.30;4.50;;;22.90;72.60;;;;;;11041282;32;20018;-73
2022/05/16 05:19:24;;;;;;;5.22;3.42;;;22.90;73.30;;;;;;11056203;32;20049;-76
2022/05/16 05:25:27;;;;;;;6.43;4.65;;;23.00;73.20;;;;;;11056365;32;20319;-76
2022/05/16 05:31:29;;;;;;;6.87;5.05;;;23.10;73.00;;;;;;11056488;32;20040;-75
2022/05/16 05:37:31;;;;;;;9.82;5.30;;;23.20;72.90;;;;;;11056197;32;20353;-75
2022/05/16 05:43:33;;;;;;;8.20;5.97;;;23.30;73.20;;;;;;11042300;32;20041;-77
2022/05/16 05:49:36;;;;;;;6.45;5.18;;;23.30;73.20;;;;;;11056025;32;20040;-74
2022/05/16 05:55:40;;;;;;;9.35;6.37;;;23.40;73.10;;;;;;11036297;32;20056;-75
2022/05/16 06:01:42;;;;;;;5.80;4.37;;;23.50;73.10;;;;;;11053661;32;20030;-76
2022/05/16 06:07:44;;;;;;;7.15;4.68;;;23.60;73.10;;;;;;11046951;32;20022;-77
2022/05/16 06:13:46;;;;;;;7.12;4.82;;;23.70;73.20;;;;;;11030395;32;20026;-76
2022/05/16 06:19:49;;;;;;;11.02;5.90;;;23.80;72.80;;;;;;11012109;32;20022;-77
2022/05/16 06:25:51;;;;;;;7.55;4.35;;;24.00;72.30;;;;;;11049615;32;20479;-77
2022/05/16 06:31:53;;;;;;;44.20;14.45;;;24.10;72.00;;;;;;11049277;32;20045;-76
2022/05/16 06:38:16;;;;;;;7.50;4.53;;;24.20;71.90;;;;;;11062402;32;20017;-76
2022/05/16 06:44:39;;;;;;;11.90;4.87;;;24.30;71.50;;;;;;11061976;32;20041;-77
2022/05/16 06:50:43;;;;;;;6.65;4.40;;;24.30;71.10;;;;;;11062472;32;20072;-76
2022/05/16 06:56:45;;;;;;;18.15;8.85;;;24.40;71.20;;;;;;11014635;32;20041;-77
2022/05/16 07:02:47;;;;;;;6.70;4.82;;;24.60;70.80;;;;;;11040138;32;20025;-76
2022/05/16 07:08:49;;;;;;;9.50;5.78;;;24.60;71.00;;;;;;11051427;32;20349;-76
2022/05/16 07:14:51;;;;;;;6.82;4.68;;;24.70;70.90;;;;;;11058985;32;20376;-72
2022/05/16 07:20:55;;;;;;;6.90;4.90;;;24.80;70.50;;;;;;11061142;32;20034;-78
2022/05/16 07:33:19;;;;;;;10.85;4.57;;;25.00;70.20;;;;;;11060201;32;20048;-75
2022/05/16 07:39:21;;;;;;;5.95;3.67;;;25.10;69.90;;;;;;11031490;32;20092;-74
2022/05/16 07:45:24;;;;;;;7.75;3.37;;;25.20;69.60;;;;;;11021416;32;20057;-76
2022/05/16 07:51:26;;;;;;;4.07;2.47;;;25.30;69.20;;;;;;11008250;32;20390;-77
2022/05/16 07:57:40;;;;;;;6.22;2.58;;;25.40;68.90;;;;;;11021356;32;20339;-77
2022/05/16 08:03:43;;;;;;;5.07;3.67;;;25.50;68.00;;;;;;11016831;32;20058;-77
2022/05/16 08:16:06;;;;;;;5.97;3.37;;;25.70;67.90;;;;;;11020358;32;20338;-76
2022/05/16 08:22:08;;;;;;;5.22;3.92;;;25.80;67.80;;;;;;11019924;32;20061;-76
2022/05/16 08:28:11;;;;;;;9.43;5.57;;;25.80;67.20;;;;;;11008134;32;20018;-72
2022/05/16 08:34:14;;;;;;;4.40;3.25;;;26.00;67.20;;;;;;11019643;32;20049;-76
2022/05/16 08:40:19;;;;;;;9.18;6.07;;;26.00;67.00;;;;;;11020637;32;20022;-73
2022/05/16 08:46:43;;;;;;;5.85;4.00;;;26.20;66.60;;;;;;11057567;32;20048;-75
2022/05/16 08:52:58;;;;;;;4.90;2.83;;;26.30;66.30;;;;;;11043752;32;20313;-75
2022/05/16 08:59:07;;;;;;;5.82;3.30;;;26.40;66.00;;;;;;11022485;32;20033;-76
2022/05/16 09:05:24;;;;;;;6.15;3.62;;;26.60;65.60;;;;;;11018727;32;20064;-79
2022/05/16 09:11:36;;;;;;;5.30;4.10;;;26.70;65.10;;;;;;11018186;32;20018;-77
2022/05/16 09:17:44;;;;;;;5.35;3.30;;;26.80;64.90;;;;;;10530516;26;12902613;-76
2022/05/16 09:24:04;;;;;;;8.55;4.37;;;26.90;64.60;;;;;;10901237;32;20027;-76
2022/05/16 09:30:08;;;;;;;19.02;6.28;;;27.10;64.10;;;;;;10901721;32;20027;-73
2022/05/16 09:36:42;;;;;;;6.40;4.68;;;27.20;64.00;;;;;;10888950;32;20024;-76
2022/05/16 09:42:45;;;;;;;43.45;10.07;;;27.30;63.80;;;;;;10889939;32;20026;-78
2022/05/16 09:48:55;;;;;;;10.57;7.12;;;27.30;64.10;;;;;;10931410;32;20394;-79
2022/05/16 09:55:04;;;;;;;11.30;6.60;;;27.40;63.90;;;;;;10941880;32;20387;-76
2022/05/16 10:01:09;;;;;;;6.80;4.75;;;27.60;63.60;;;;;;10944050;32;20053;-76
2022/05/16 10:07:12;;;;;;;5.72;3.95;;;27.80;63.40;;;;;;10949430;32;20026;-79
2022/05/16 10:13:16;;;;;;;7.93;5.47;;;28.10;63.00;;;;;;10950509;32;20045;-79
2022/05/16 10:19:22;;;;;;;11.45;8.60;;;28.20;62.70;;;;;;10948858;32;20049;-77
2022/05/16 10:25:30;;;;;;;7.85;5.97;;;28.40;62.40;;;;;;10948253;32;20367;-78
2022/05/16 10:39:02;;;;;;;10.50;7.57;;;28.20;63.10;;;;;;10934281;32;20027;-74
2022/05/16 10:45:20;;;;;;;17.25;8.73;;;28.50;62.70;;;;;;10910267;32;20027;-73
2022/05/16 10:51:31;;;;;;;7.25;4.72;;;28.90;61.90;;;;;;10905769;32;20327;-80
2022/05/16 10:57:55;;;;;;;8.02;6.15;;;29.00;61.40;;;;;;10910030;32;20390;-77
2022/05/16 11:04:01;;;;;;;8.93;4.97;;;29.40;60.80;;;;;;10909772;32;20027;-77
2022/05/16 11:10:32;;;;;;;6.57;4.37;;;29.50;60.50;;;;;;10896043;32;20045;-75
2022/05/16 11:16:38;;;;;;;9.23;5.85;;;29.80;59.30;;;;;;10907881;32;20016;-73
2022/05/16 11:23:13;;;;;;;10.13;5.12;;;29.90;58.50;;;;;;10908799;32;20360;-75
2022/05/16 11:29:38;;;;;;;5.97;4.10;;;30.20;57.70;;;;;;10903948;32;20030;-69
2022/05/16 11:36:17;;;;;;;9.27;4.85;;;30.40;56.70;;;;;;10909045;32;20023;-76
2022/05/16 11:42:33;;;;;;;5.97;3.87;;;30.60;56.00;;;;;;10904854;32;20058;-73
2022/05/16 11:48:43;;;;;;;9.77;4.95;;;30.80;55.40;;;;;;10907791;32;20023;-74
2022/05/16 12:01:40;;;;;;;10.15;4.32;;;30.80;55.30;;;;;;10907705;32;20331;-78
2022/05/16 12:08:22;;;;;;;5.18;3.95;;;30.90;55.10;;;;;;10907366;32;20066;-77
2022/05/16 12:14:26;;;;;;;8.27;4.15;;;30.70;55.50;;;;;;10893992;32;20054;-76
2022/05/16 12:20:37;;;;;;;5.75;4.05;;;30.70;55.90;;;;;;10903899;32;20026;-76
2022/05/16 12:27:03;;;;;;;7.15;4.80;;;31.00;55.30;;;;;;10902308;32;20039;-75
2022/05/16 12:33:26;;;;;;;10.65;6.30;;;31.10;55.10;;;;;;10903301;32;20020;-76
2022/05/16 12:39:34;;;;;;;8.55;4.57;;;31.00;55.30;;;;;;10892640;32;20053;-77
2022/05/16 12:45:45;;;;;;;8.65;4.93;;;30.90;55.00;;;;;;10905457;32;20027;-76
2022/05/16 12:51:53;;;;;;;8.63;5.32;;;30.90;55.00;;;;;;10905853;32;20027;-76
2022/05/16 12:58:22;;;;;;;8.05;4.12;;;30.90;54.80;;;;;;10906146;32;20023;-74
2022/05/16 13:04:27;;;;;;;10.35;4.12;;;30.80;54.60;;;;;;10890139;32;20399;-76
2022/05/16 13:11:04;;;;;;;11.63;6.28;;;30.80;54.10;;;;;;10905548;32;20023;-72
2022/05/16 13:17:13;;;;;;;10.13;5.65;;;30.80;54.50;;;;;;10905257;32;20446;-76
2022/05/16 13:23:15;;;;;;;8.85;5.30;;;30.80;54.50;;;;;;10904978;32;20023;-75
2022/05/16 13:29:26;;;;;;;9.80;4.72;;;30.80;54.40;;;;;;10915509;32;20042;-75
2022/05/16 13:35:37;;;;;;;8.80;5.35;;;30.70;54.10;;;;;;10941924;32;20057;-76
2022/05/16 13:41:39;;;;;;;7.60;5.35;;;30.70;53.80;;;;;;10924738;32;20026;-74
2022/05/16 13:47:44;;;;;;;9.70;4.87;;;30.70;53.90;;;;;;10941341;32;20311;-75
2022/05/16 13:53:46;;;;;;;8.82;6.10;;;30.70;54.00;;;;;;10941270;32;20301;-76
2022/05/16 14:00:06;;;;;;;10.30;5.68;;;30.70;53.80;;;;;;10941620;32;20042;-76
2022/05/16 14:06:38;;;;;;;9.90;5.68;;;30.70;54.50;;;;;;10941790;32;20023;-76
2022/05/16 14:13:01;;;;;;;11.65;6.07;;;30.70;54.40;;;;;;10927913;32;20319;-76
2022/05/16 14:19:12;;;;;;;13.48;7.45;;;30.70;54.30;;;;;;10941485;32;20023;-74
2022/05/16 14:25:26;;;;;;;10.48;5.82;;;30.70;54.70;;;;;;10941630;32;20192;-74
2022/05/16 14:31:45;;;;;;;10.00;4.97;;;30.60;54.60;;;;;;10940681;32;20312;-74
2022/05/16 14:37:52;;;;;;;13.70;5.93;;;30.30;54.80;;;;;;10939186;32;20023;-75
2022/05/16 14:44:07;;;;;;;8.93;5.18;;;29.90;54.80;;;;;;10929863;32;20044;-75
2022/05/16 14:50:30;;;;;;;4.47;3.40;;;29.70;55.20;;;;;;10895702;32;20276;-73
2022/05/16 14:56:43;;;;;;;10.00;5.90;;;29.50;55.20;;;;;;10909935;32;20034;-76
2022/05/16 15:09:13;;;;;;;6.57;5.22;;;29.50;55.50;;;;;;10935212;32;20461;-75
2022/05/16 15:15:16;;;;;;;8.27;4.60;;;29.60;55.30;;;;;;10932142;32;20042;-75
2022/05/16 15:21:19;;;;;;;8.35;4.97;;;29.70;55.40;;;;;;10909165;32;20339;-77
2022/05/16 15:27:23;;;;;;;14.68;5.72;;;29.70;54.50;;;;;;10897293;32;20327;-73
2022/05/16 15:33:26;;;;;;;4.97;3.35;;;29.60;53.70;;;;;;10909637;32;20031;-74
2022/05/16 15:39:30;;;;;;;5.85;3.85;;;29.60;53.50;;;;;;10904504;32;20023;-73
2022/05/16 15:45:33;;;;;;;6.40;4.22;;;29.60;53.80;;;;;;10904404;32;20085;-73
2022/05/16 15:51:35;;;;;;;8.80;4.00;;;29.40;53.20;;;;;;10907929;32;20052;-73
2022/05/16 15:57:38;;;;;;;5.45;3.65;;;29.30;53.50;;;;;;10893145;32;20050;-73
2022/05/16 16:10:38;;;;;;;7.75;4.05;;;29.00;54.20;;;;;;10909033;32;20065;-73
2022/05/16 16:16:46;;;;;;;5.65;3.47;;;28.90;54.50;;;;;;10790545;32;20035;-73
2022/05/16 16:22:49;;;;;;;9.10;4.75;;;28.90;54.80;;;;;;10769462;33;20439;-73
2022/05/16 16:28:52;;;;;;;19.20;3.83;;;28.80;56.70;;;;;;10750389;33;20409;-72
2022/05/16 16:34:56;;;;;;;6.43;3.37;;;28.50;59.80;;;;;;10755830;33;20059;-72
2022/05/16 16:41:00;;;;;;;15.70;3.30;;;28.10;60.90;;;;;;10756204;33;20443;-74
2022/05/16 16:47:04;;;;;;;5.78;3.20;;;27.90;62.20;;;;;;10753388;33;20412;-71
2022/05/16 16:59:27;;;;;;;6.20;3.12;;;27.40;63.30;;;;;;10905763;32;20355;-70
2022/05/16 17:05:58;;;;;;;8.23;3.92;;;27.30;63.20;;;;;;10905230;32;20026;-70
2022/05/16 17:12:00;;;;;;;6.62;4.10;;;27.30;62.70;;;;;;10904664;32;20027;-74
2022/05/16 17:18:06;;;;;;;9.88;4.30;;;27.30;63.00;;;;;;10903251;27;20035;-71
2022/05/16 17:24:13;;;;;;;4.47;3.12;;;26.80;64.90;;;;;;10900650;32;20339;-71
2022/05/16 17:30:22;;;;;;;6.78;1.98;;;26.50;66.30;;;;;;10904294;32;20023;-73
2022/05/16 17:36:30;;;;;;;5.90;4.18;;;26.20;67.20;;;;;;10904430;32;20061;-72
2022/05/16 17:42:39;;;;;;;6.78;4.25;;;26.00;67.50;;;;;;10904147;32;20023;-73
2022/05/16 17:48:43;;;;;;;7.10;4.32;;;25.70;68.40;;;;;;10903106;32;20045;-73
2022/05/16 17:54:49;;;;;;;6.90;4.00;;;25.50;69.00;;;;;;10903374;32;20065;-73
2022/05/16 18:00:53;;;;;;;11.95;4.95;;;25.60;69.00;;;;;;10902488;32;20019;-74
2022/05/16 18:07:02;;;;;;;10.43;2.87;;;25.40;69.50;;;;;;10895674;32;20054;-74
2022/05/16 18:13:04;;;;;;;5.43;3.17;;;25.20;71.10;;;;;;10865927;32;20046;-75
2022/05/16 18:19:08;;;;;;;6.70;3.30;;;25.20;71.20;;;;;;10865402;32;20042;-74
2022/05/16 18:25:12;;;;;;;7.80;2.97;;;25.30;70.90;;;;;;10872647;32;20350;-75
2022/05/16 18:31:15;;;;;;;2.28;2.00;;;25.00;71.90;;;;;;10873598;32;20066;-75
2022/05/16 18:37:18;;;;;;;5.32;2.67;;;25.20;71.60;;;;;;10873307;32;20415;-75
2022/05/16 18:56:01;;;;;;;7.60;2.92;;;25.10;71.50;;;;;;10872662;32;20030;-73
2022/05/16 19:02:05;;;;;;;9.35;3.95;;;24.90;71.40;;;;;;10870898;32;20058;-69
2022/05/16 19:08:08;;;;;;;9.88;5.05;;;24.80;71.50;;;;;;10871398;32;20388;-68
2022/05/16 19:14:12;;;;;;;8.65;3.25;;;24.40;71.90;;;;;;10871975;32;20011;-70
2022/05/16 19:20:16;;;;;;;5.07;3.10;;;24.10;73.30;;;;;;10871717;32;20027;-69
2022/05/16 19:26:22;;;;;;;9.27;4.37;;;24.20;73.40;;;;;;10870759;32;20023;-70
2022/05/16 19:32:25;;;;;;;5.32;3.30;;;24.00;73.00;;;;;;10870767;32;20384;-69
2022/05/16 19:38:27;;;;;;;4.93;3.03;;;23.90;74.40;;;;;;10871190;32;20020;-70
2022/05/16 19:44:29;;;;;;;5.78;4.05;;;24.10;74.00;;;;;;10870970;32;20050;-68
2022/05/16 19:50:31;;;;;;;5.40;3.10;;;24.10;74.30;;;;;;10869426;32;20015;-69
2022/05/16 19:56:34;;;;;;;3.80;2.85;;;24.00;75.30;;;;;;10866505;32;20023;-69
2022/05/16 20:02:38;;;;;;;8.48;4.93;;;24.10;75.20;;;;;;10870561;32;20023;-70
2022/05/16 20:08:40;;;;;;;6.15;3.40;;;23.70;73.80;;;;;;10870316;32;20028;-70
2022/05/16 20:14:43;;;;;;;9.02;4.85;;;23.30;74.00;;;;;;10869967;32;20384;-70
2022/05/16 20:20:46;;;;;;;7.40;3.55;;;23.30;74.70;;;;;;10869662;32;20058;-69
2022/05/16 20:26:48;;;;;;;4.60;2.72;;;23.30;75.60;;;;;;10869564;32;20054;-68
2022/05/16 20:32:51;;;;;;;3.87;2.58;;;23.40;75.40;;;;;;10869383;32;20012;-68
2022/05/16 20:38:54;;;;;;;2.80;1.90;;;23.40;75.40;;;;;;10864287;32;20019;-68
2022/05/16 20:44:56;;;;;;;4.70;3.05;;;23.50;75.30;;;;;;10868824;32;20019;-68
2022/05/16 20:50:59;;;;;;;2.22;1.87;;;23.50;75.10;;;;;;10868656;32;20028;-68
2022/05/16 20:57:02;;;;;;;2.35;1.92;;;23.60;74.80;;;;;;10868528;32;20023;-69
2022/05/16 21:03:05;;;;;;;4.30;2.60;;;23.40;74.70;;;;;;10868284;32;20475;-69
2022/05/16 21:09:08;;;;;;;2.85;1.98;;;23.40;74.90;;;;;;10867337;32;20046;-70
2022/05/16 21:15:15;;;;;;;3.70;2.78;;;23.60;74.80;;;;;;10867979;32;20020;-70
2022/05/16 21:21:17;;;;;;;4.80;2.40;;;23.70;75.00;;;;;;10885661;32;20028;-71
2022/05/16 21:27:19;;;;;;;3.05;1.67;;;23.60;74.80;;;;;;10904921;32;20011;-71
2022/05/16 21:33:21;;;;;;;3.33;2.22;;;23.50;75.20;;;;;;10900515;32;20031;-71
2022/05/16 21:39:23;;;;;;;2.60;2.12;;;23.50;75.10;;;;;;10904514;32;20019;-70
2022/05/16 21:45:27;;;;;;;5.40;3.00;;;23.50;74.80;;;;;;10904523;32;20030;-70
2022/05/16 21:51:29;;;;;;;4.45;2.70;;;23.50;75.10;;;;;;10904216;32;20027;-70
2022/05/16 21:57:31;;;;;;;2.85;2.50;;;23.30;75.10;;;;;;10907619;32;20028;-70
2022/05/16 22:03:34;;;;;;;6.22;3.05;;;23.30;75.20;;;;;;10912103;32;20020;-70
2022/05/16 22:09:36;;;;;;;4.47;2.65;;;23.50;75.50;;;;;;10907563;32;20031;-70
2022/05/16 22:15:39;;;;;;;4.12;3.15;;;23.40;76.10;;;;;;10911462;32;20395;-71
2022/05/16 22:21:43;;;;;;;5.47;3.17;;;23.40;75.90;;;;;;10911403;32;20345;-71
2022/05/16 22:27:46;;;;;;;7.25;4.82;;;23.30;75.50;;;;;;10911105;32;20012;-70
2022/05/16 22:33:48;;;;;;;4.97;2.90;;;23.20;76.20;;;;;;10911027;32;20023;-71
2022/05/16 22:39:51;;;;;;;5.35;3.25;;;23.10;76.70;;;;;;10910672;32;20312;-71
2022/05/16 22:45:56;;;;;;;7.15;3.72;;;23.00;77.00;;;;;;10910452;32;20027;-72
2022/05/16 22:51:58;;;;;;;3.12;2.50;;;23.10;77.50;;;;;;10910260;32;20027;-72
2022/05/16 22:58:00;;;;;;;7.05;3.47;;;23.10;77.30;;;;;;10909957;32;20023;-71
2022/05/16 23:04:02;;;;;;;3.97;2.62;;;23.10;77.10;;;;;;10909878;32;20019;-71
2022/05/16 23:10:09;;;;;;;3.40;2.45;;;23.00;77.30;;;;;;10909803;32;20148;-71
2022/05/16 23:16:12;;;;;;;3.83;2.70;;;23.10;77.00;;;;;;10906755;32;20320;-70
2022/05/16 23:22:14;;;;;;;6.10;3.62;;;23.10;77.40;;;;;;10909124;32;20042;-70
2022/05/16 23:28:17;;;;;;;5.30;3.58;;;23.00;77.20;;;;;;10908932;32;20392;-70
2022/05/16 23:34:19;;;;;;;4.18;2.95;;;23.00;77.10;;;;;;10908772;32;20027;-70
2022/05/16 23:40:23;;;;;;;6.87;3.97;;;23.00;76.90;;;;;;10908437;32;20050;-70
2022/05/16 23:46:25;;;;;;;6.12;3.15;;;22.90;76.90;;;;;;10908445;32;20100;-70
2022/05/16 23:52:27;;;;;;;7.12;3.42;;;22.90;76.70;;;;;;10907357;32;20050;-71
2022/05/16 23:58:29;;;;;;;5.35;3.55;;;22.90;77.00;;;;;;10907969;32;20392;-71
